Time;durP1;ratioP1;P1;durP2;ratioP2;P2;SDS_P1;SDS_P2;PMS_P1;PMS_P2;Temp;Humidity;BMP_temperature;BMP_pressure;BME280_temperature;BME280_humidity;BME280_pressure;Samples;Min_cycle;Max_cycle;Signal;HPM_P1;HPM_P2
2021/11/10 00:00:41;;;;;;;;;;;;;;;;;;5112974;28;19920;-76
2021/11/10 00:03:06;;;;;;;;;;;;;;;;;;5106960;28;19900;-76
2021/11/10 00:05:31;;;;;;;;;;;;;;;;;;5108029;28;19904;-76
2021/11/10 00:07:57;;;;;;;;;;;;;;;;;;5113046;28;19926;-76
2021/11/10 00:10:22;;;;;;;;;;;;;;;;;;5108261;28;19926;-76
2021/11/10 00:12:47;;;;;;;;;;;;;;;;;;5111222;28;19904;-76
2021/11/10 00:15:13;;;;;;;;;;;;;;;;;;5106693;28;19904;-76
2021/11/10 00:17:38;;;;;;;;;;;;;;;;;;5107521;28;19964;-76
2021/11/10 00:20:03;;;;;;;;;;;;;;;;;;5108968;28;20150;-76
2021/11/10 00:22:28;;;;;;;;;;;;;;;;;;5106467;28;19900;-75
2021/11/10 00:24:53;;;;;;;;;;;;;;;;;;5111934;28;19919;-76
2021/11/10 00:27:19;;;;;;;;;;;;;;;;;;5107032;28;19900;-76
2021/11/10 00:29:44;;;;;;;;;;;;;;;;;;5122713;28;19900;-76
2021/11/10 00:32:09;;;;;;;;;;;;;;;;;;5112302;28;19911;-76
2021/11/10 00:34:34;;;;;;;;;;;;;;;;;;5122289;28;19910;-75
2021/11/10 00:37:00;;;;;;;;;;;;;;;;;;5112144;28;19904;-75
2021/11/10 00:39:25;;;;;;;;;;;;;;;;;;5123959;28;19926;-76
2021/11/10 00:41:50;;;;;;;;;;;;;;;;;;5123241;28;19977;-76
2021/11/10 00:44:15;;;;;;;;;;;;;;;;;;5112657;28;19900;-75
2021/11/10 00:46:40;;;;;;;;;;;;;;;;;;5124025;28;19900;-76
2021/11/10 00:49:06;;;;;;;;;;;;;;;;;;5128466;28;19915;-76
2021/11/10 00:51:31;;;;;;;;;;;;;;;;;;5106596;28;19922;-76
2021/11/10 00:53:56;;;;;;;;;;;;;;;;;;5106619;28;19908;-76
2021/11/10 00:56:21;;;;;;;;;;;;;;;;;;5111249;28;19971;-76
2021/11/10 00:58:46;;;;;;;;;;;;;;;;;;5122255;28;19904;-76
2021/11/10 01:01:12;;;;;;;;;;;;;;;;;;5127164;28;19969;-75
2021/11/10 01:03:38;;;;;;;;;;;;;;;;;;5099506;28;19901;-75
2021/11/10 01:06:03;;;;;;;;;;;;;;;;;;5122238;28;19913;-76
2021/11/10 01:08:28;;;;;;;;;;;;;;;;;;5111339;28;19900;-76
2021/11/10 01:10:53;;;;;;;;;;;;;;;;;;5121032;28;20211;-75
2021/11/10 01:13:20;;;;;;;;;;;;;;;;;;5127402;28;19908;-76
2021/11/10 01:15:45;;;;;;;;;;;;;;;;;;5104338;28;19915;-76
2021/11/10 01:18:11;;;;;;;;;;;;;;;;;;5122013;28;19905;-76
2021/11/10 01:20:36;;;;;;;;;;;;;;;;;;5092811;28;19915;-76
2021/11/10 01:23:01;;;;;;;;;;;;;;;;;;5106259;28;19908;-75
2021/11/10 01:25:27;;;;;;;;;;;;;;;;;;5125887;28;19980;-76
2021/11/10 01:27:52;;;;;;;;;;;;;;;;;;5102532;28;19996;-76
2021/11/10 01:30:17;;;;;;;;;;;;;;;;;;5105278;28;19987;-76
2021/11/10 01:32:45;;;;;;;;;;;;;;;;;;5127772;28;19923;-76
2021/11/10 01:35:10;;;;;;;;;;;;;;;;;;5106154;28;19943;-75
2021/11/10 01:37:36;;;;;;;;;;;;;;;;;;5126497;28;19904;-75
2021/11/10 01:40:01;;;;;;;;;;;;;;;;;;5105554;28;19900;-75
2021/11/10 01:42:30;;;;;;;;;;;;;;;;;;5104996;28;19905;-75
2021/11/10 01:44:55;;;;;;;;;;;;;;;;;;5108953;28;19932;-75
2021/11/10 01:47:21;;;;;;;;;;;;;;;;;;5106050;28;19903;-75
2021/11/10 01:49:47;;;;;;;;;;;;;;;;;;5133835;27;19940;-75
2021/11/10 01:52:15;;;;;;;;;;;;;;;;;;5125492;27;19939;-75
2021/11/10 01:54:40;;;;;;;;;;;;;;;;;;5108460;28;19978;-75
2021/11/10 01:57:10;;;;;;;;;;;;;;;;;;5129706;27;20007;-75
2021/11/10 01:59:37;;;;;;;;;;;;;;;;;;5107964;28;19916;-75
2021/11/10 02:02:02;;;;;;;;;;;;;;;;;;5113669;28;19900;-75
2021/11/10 02:04:28;;;;;;;;;;;;;;;;;;5126019;27;19900;-75
2021/11/10 02:06:53;;;;;;;;;;;;;;;;;;5122861;27;19915;-75
2021/11/10 02:09:24;;;;;;;;;;;;;;;;;;5132052;27;19900;-75
2021/11/10 02:11:50;;;;;;;;;;;;;;;;;;5107004;28;19900;-75
2021/11/10 02:14:17;;;;;;;;;;;;;;;;;;5113738;28;19900;-75
2021/11/10 02:16:42;;;;;;;;;;;;;;;;;;5108077;28;19962;-75
2021/11/10 02:19:15;;;;;;;;;;;;;;;;;;5123912;27;19904;-75
2021/11/10 02:21:42;;;;;;;;;;;;;;;;;;5115657;28;19940;-76
2021/11/10 02:24:07;;;;;;;;;;;;;;;;;;5105669;28;19922;-75
2021/11/10 02:26:32;;;;;;;;;;;;;;;;;;5127413;27;19908;-75
2021/11/10 02:28:57;;;;;;;;;;;;;;;;;;5108670;28;19900;-75
2021/11/10 02:31:23;;;;;;;;;;;;;;;;;;5123606;28;19970;-75
2021/11/10 02:33:48;;;;;;;;;;;;;;;;;;5113015;28;19907;-75
2021/11/10 02:36:13;;;;;;;;;;;;;;;;;;5106393;28;19923;-75
2021/11/10 02:38:39;;;;;;;;;;;;;;;;;;5109613;28;19978;-75
2021/11/10 02:41:04;;;;;;;;;;;;;;;;;;5108482;28;20217;-75
2021/11/10 02:43:29;;;;;;;;;;;;;;;;;;5122714;28;19908;-74
2021/11/10 02:45:54;;;;;;;;;;;;;;;;;;5112492;28;19922;-75
2021/11/10 02:48:20;;;;;;;;;;;;;;;;;;5104824;28;19960;-75
2021/11/10 02:50:45;;;;;;;;;;;;;;;;;;5124438;27;19910;-75
2021/11/10 02:53:10;;;;;;;;;;;;;;;;;;5105825;28;19919;-75
2021/11/10 02:55:36;;;;;;;;;;;;;;;;;;5122582;27;19915;-75
2021/11/10 02:58:01;;;;;;;;;;;;;;;;;;5127942;28;19900;-75
2021/11/10 03:00:26;;;;;;;;;;;;;;;;;;5124084;27;19919;-75
2021/11/10 03:02:52;;;;;;;;;;;;;;;;;;5110234;28;19946;-76
2021/11/10 03:05:18;;;;;;;;;;;;;;;;;;5127045;28;19904;-75
2021/11/10 03:07:44;;;;;;;;;;;;;;;;;;5103263;28;19912;-75
2021/11/10 03:10:09;;;;;;;;;;;;;;;;;;5130505;27;19900;-75
2021/11/10 03:12:35;;;;;;;;;;;;;;;;;;5103912;28;19924;-75
2021/11/10 03:15:01;;;;;;;;;;;;;;;;;;5124292;28;19963;-74
2021/11/10 03:17:26;;;;;;;;;;;;;;;;;;5112281;28;19900;-75
2021/11/10 03:19:53;;;;;;;;;;;;;;;;;;5123412;27;19926;-75
2021/11/10 03:22:20;;;;;;;;;;;;;;;;;;5112224;28;20007;-74
2021/11/10 03:24:49;;;;;;;;;;;;;;;;;;5123390;27;19967;-75
2021/11/10 03:27:19;;;;;;;;;;;;;;;;;;5108322;28;19916;-75
2021/11/10 03:29:50;;;;;;;;;;;;;;;;;;5130729;28;19908;-75
2021/11/10 03:32:15;;;;;;;;;;;;;;;;;;5124404;28;19908;-75
2021/11/10 03:34:41;;;;;;;;;;;;;;;;;;5112914;28;19951;-75
2021/11/10 03:37:06;;;;;;;;;;;;;;;;;;5106735;28;19971;-74
2021/11/10 03:39:34;;;;;;;;;;;;;;;;;;5120824;27;19912;-75
2021/11/10 03:42:00;;;;;;;;;;;;;;;;;;5112045;28;19900;-75
2021/11/10 03:44:25;;;;;;;;;;;;;;;;;;5123498;27;20199;-75
2021/11/10 03:46:50;;;;;;;;;;;;;;;;;;5094038;28;19915;-75
2021/11/10 03:49:16;;;;;;;;;;;;;;;;;;5107816;28;19934;-75
2021/11/10 03:51:42;;;;;;;;;;;;;;;;;;5124266;28;19960;-75
2021/11/10 03:54:07;;;;;;;;;;;;;;;;;;5129977;28;19900;-75
2021/11/10 03:56:35;;;;;;;;;;;;;;;;;;5123132;27;19938;-75
2021/11/10 03:59:01;;;;;;;;;;;;;;;;;;5126638;28;19900;-76
2021/11/10 04:01:27;;;;;;;;;;;;;;;;;;5123283;27;19900;-75
2021/11/10 04:03:56;;;;;;;;;;;;;;;;;;5121764;28;19915;-75
2021/11/10 04:06:22;;;;;;;;;;;;;;;;;;5110748;28;19904;-75
2021/11/10 04:08:47;;;;;;;;;;;;;;;;;;5122463;28;19910;-75
2021/11/10 04:11:13;;;;;;;;;;;;;;;;;;5129942;28;19900;-75
2021/11/10 04:13:38;;;;;;;;;;;;;;;;;;5123997;28;19907;-75
2021/11/10 04:16:04;;;;;;;;;;;;;;;;;;5122997;28;20216;-75
2021/11/10 04:18:33;;;;;;;;;;;;;;;;;;5128660;27;19908;-75
2021/11/10 04:21:02;;;;;;;;;;;;;;;;;;5105703;28;19918;-75
2021/11/10 04:23:27;;;;;;;;;;;;;;;;;;5128962;27;19900;-75
2021/11/10 04:25:53;;;;;;;;;;;;;;;;;;5088973;28;19912;-75
2021/11/10 04:28:19;;;;;;;;;;;;;;;;;;5122046;28;19931;-75
2021/11/10 04:30:44;;;;;;;;;;;;;;;;;;5127756;28;19947;-75
2021/11/10 04:33:10;;;;;;;;;;;;;;;;;;5088785;28;20042;-74
2021/11/10 04:35:38;;;;;;;;;;;;;;;;;;5110376;28;19905;-75
2021/11/10 04:38:04;;;;;;;;;;;;;;;;;;5108904;28;19915;-75
2021/11/10 04:40:29;;;;;;;;;;;;;;;;;;5124102;28;19900;-75
2021/11/10 04:42:55;;;;;;;;;;;;;;;;;;5095102;28;19920;-75
2021/11/10 04:45:32;;;;;;;;;;;;;;;;;;5089568;28;19908;-75
2021/11/10 04:47:57;;;;;;;;;;;;;;;;;;5106964;28;20211;-75
2021/11/10 04:50:23;;;;;;;;;;;;;;;;;;5129884;28;19900;-75
2021/11/10 04:52:48;;;;;;;;;;;;;;;;;;5121546;28;19953;-75
2021/11/10 04:55:14;;;;;;;;;;;;;;;;;;5092696;28;19904;-75
2021/11/10 04:57:39;;;;;;;;;;;;;;;;;;5107593;28;19934;-75
2021/11/10 05:00:04;;;;;;;;;;;;;;;;;;5102417;28;19912;-75
2021/11/10 05:02:34;;;;;;;;;;;;;;;;;;5128416;28;19900;-75
2021/11/10 05:05:00;;;;;;;;;;;;;;;;;;5105552;28;20053;-75
2021/11/10 05:07:28;;;;;;;;;;;;;;;;;;5110474;28;20206;-75
2021/11/10 05:09:54;;;;;;;;;;;;;;;;;;5121936;28;19901;-75
2021/11/10 05:12:19;;;;;;;;;;;;;;;;;;5106134;28;19934;-75
2021/11/10 05:14:48;;;;;;;;;;;;;;;;;;5126348;28;19934;-75
2021/11/10 05:17:13;;;;;;;;;;;;;;;;;;5122758;28;19908;-75
2021/11/10 05:19:39;;;;;;;;;;;;;;;;;;5111186;28;19915;-75
2021/11/10 05:22:04;;;;;;;;;;;;;;;;;;5109528;28;19908;-75
2021/11/10 05:24:29;;;;;;;;;;;;;;;;;;5110488;28;19930;-75
2021/11/10 05:26:54;;;;;;;;;;;;;;;;;;5114209;28;19908;-75
2021/11/10 05:29:19;;;;;;;;;;;;;;;;;;5111245;28;19916;-75
2021/11/10 05:31:45;;;;;;;;;;;;;;;;;;5116650;28;19920;-75
2021/11/10 05:34:10;;;;;;;;;;;;;;;;;;5110594;28;19923;-75
2021/11/10 05:36:35;;;;;;;;;;;;;;;;;;5108172;28;19916;-75
2021/11/10 05:39:00;;;;;;;;;;;;;;;;;;5114623;28;19900;-75
2021/11/10 05:41:26;;;;;;;;;;;;;;;;;;5109694;28;19922;-75
2021/11/10 05:43:51;;;;;;;;;;;;;;;;;;5114196;28;19943;-75
2021/11/10 05:46:16;;;;;;;;;;;;;;;;;;5108146;28;19974;-74
2021/11/10 05:48:41;;;;;;;;;;;;;;;;;;5109116;28;19900;-74
2021/11/10 05:51:07;;;;;;;;;;;;;;;;;;5114976;28;19901;-74
2021/11/10 05:53:32;;;;;;;;;;;;;;;;;;5107982;28;19900;-74
2021/11/10 05:55:57;;;;;;;;;;;;;;;;;;5113675;28;20001;-74
2021/11/10 05:58:22;;;;;;;;;;;;;;;;;;5108002;28;19930;-74
2021/11/10 06:00:48;;;;;;;;;;;;;;;;;;5108662;28;19911;-74
2021/11/10 06:03:13;;;;;;;;;;;;;;;;;;5132261;28;19975;-74
2021/11/10 06:05:38;;;;;;;;;;;;;;;;;;5108485;28;19903;-74
2021/11/10 06:08:03;;;;;;;;;;;;;;;;;;5115665;28;19923;-75
2021/11/10 06:10:28;;;;;;;;;;;;;;;;;;5123416;28;19900;-74
2021/11/10 06:12:54;;;;;;;;;;;;;;;;;;5111229;28;19939;-74
2021/11/10 06:15:19;;;;;;;;;;;;;;;;;;5131039;28;19967;-74
2021/11/10 06:17:44;;;;;;;;;;;;;;;;;;5109441;28;19927;-74
2021/11/10 06:20:09;;;;;;;;;;;;;;;;;;5113026;28;19971;-74
2021/11/10 06:22:35;;;;;;;;;;;;;;;;;;5107005;28;19916;-75
2021/11/10 06:25:00;;;;;;;;;;;;;;;;;;5109073;28;19911;-74
2021/11/10 06:27:25;;;;;;;;;;;;;;;;;;5114514;28;19901;-75
2021/11/10 06:29:50;;;;;;;;;;;;;;;;;;5108843;28;19907;-74
2021/11/10 06:32:15;;;;;;;;;;;;;;;;;;5113723;28;19904;-74
2021/11/10 06:34:41;;;;;;;;;;;;;;;;;;5108049;28;19915;-75
2021/11/10 06:37:06;;;;;;;;;;;;;;;;;;5110159;28;19931;-74
2021/11/10 06:39:31;;;;;;;;;;;;;;;;;;5115834;28;19970;-74
2021/11/10 06:41:57;;;;;;;;;;;;;;;;;;5109205;28;19955;-74
2021/11/10 06:44:22;;;;;;;;;;;;;;;;;;5114642;28;19900;-75
2021/11/10 06:46:47;;;;;;;;;;;;;;;;;;5106673;28;19996;-74
2021/11/10 06:49:12;;;;;;;;;;;;;;;;;;5109135;28;19912;-74
2021/11/10 06:51:39;;;;;;;;;;;;;;;;;;5111315;28;20697;-73
2021/11/10 06:54:04;;;;;;;;;;;;;;;;;;5109377;28;19900;-74
2021/11/10 06:56:30;;;;;;;;;;;;;;;;;;5114224;28;19915;-74
2021/11/10 06:58:55;;;;;;;;;;;;;;;;;;5109234;28;19912;-74
2021/11/10 07:01:20;;;;;;;;;;;;;;;;;;5107994;28;19928;-74
2021/11/10 07:03:46;;;;;;;;;;;;;;;;;;5110564;28;19970;-73
2021/11/10 07:06:11;;;;;;;;;;;;;;;;;;5118933;27;19923;-74
2021/11/10 07:08:36;;;;;;;;;;;;;;;;;;5113925;28;19916;-73
2021/11/10 07:11:02;;;;;;;;;;;;;;;;;;5108362;28;19960;-73
2021/11/10 07:13:27;;;;;;;;;;;;;;;;;;5106051;28;19923;-73
2021/11/10 07:15:52;;;;;;;;;;;;;;;;;;5103582;28;19971;-72
2021/11/10 07:18:17;;;;;;;;;;;;;;;;;;5106242;28;19908;-72
2021/11/10 07:20:42;;;;;;;;;;;;;;;;;;5110684;28;19936;-73
2021/11/10 07:23:08;;;;;;;;;;;;;;;;;;5104565;28;19900;-75
2021/11/10 07:25:33;;;;;;;;;;;;;;;;;;5114105;27;19908;-74
2021/11/10 07:27:58;;;;;;;;;;;;;;;;;;5100463;28;19908;-76
2021/11/10 07:30:24;;;;;;;;;;;;;;;;;;5101772;28;19950;-74
2021/11/10 07:32:49;;;;;;;;;;;;;;;;;;5110645;28;19901;-75
2021/11/10 07:35:14;;;;;;;;;;;;;;;;;;5103904;28;19904;-76
2021/11/10 07:37:41;;;;;;;;;;;;;;;;;;5105881;28;19904;-76
2021/11/10 07:40:06;;;;;;;;;;;;;;;;;;5111052;28;19936;-74
2021/11/10 07:42:33;;;;;;;;;;;;;;;;;;5105186;28;19915;-75
2021/11/10 07:45:09;;;;;;;;;;;;;;;;;;5107723;28;19920;-75
2021/11/10 07:47:40;;;;;;;;;;;;;;;;;;5104468;28;19907;-75
2021/11/10 07:50:05;;;;;;;;;;;;;;;;;;5103111;28;19904;-75
2021/11/10 07:52:30;;;;;;;;;;;;;;;;;;5126051;27;19900;-75
2021/11/10 07:54:55;;;;;;;;;;;;;;;;;;5105255;28;20223;-75
2021/11/10 07:57:21;;;;;;;;;;;;;;;;;;5102997;28;19904;-75
2021/11/10 07:59:46;;;;;;;;;;;;;;;;;;5108116;28;20250;-78
2021/11/10 08:02:11;;;;;;;;;;;;;;;;;;5101276;28;19940;-78
2021/11/10 08:04:37;;;;;;;;;;;;;;;;;;5108309;28;19900;-81
2021/11/10 08:07:02;;;;;;;;;;;;;;;;;;5104193;28;19900;-81
2021/11/10 08:09:27;;;;;;;;;;;;;;;;;;5104187;28;19975;-78
2021/11/10 08:11:52;;;;;;;;;;;;;;;;;;5109622;28;20243;-77
2021/11/10 08:14:19;;;;;;;;;;;;;;;;;;5105335;28;19900;-78
2021/11/10 08:16:44;;;;;;;;;;;;;;;;;;5107710;28;19999;-78
2021/11/10 08:19:09;;;;;;;;;;;;;;;;;;5102725;28;19904;-74
2021/11/10 08:21:35;;;;;;;;;;;;;;;;;;5102732;28;19912;-74
2021/11/10 08:24:02;;;;;;;;;;;;;;;;;;5113339;28;19908;-75
2021/11/10 08:26:28;;;;;;;;;;;;;;;;;;5106383;28;19934;-80
2021/11/10 08:28:53;;;;;;;;;;;;;;;;;;5110277;28;19941;-77
2021/11/10 08:31:18;;;;;;;;;;;;;;;;;;5105288;28;19900;-76
2021/11/10 08:33:43;;;;;;;;;;;;;;;;;;5103444;28;19942;-76
2021/11/10 08:36:08;;;;;;;;;;;;;;;;;;5108217;28;19904;-77
2021/11/10 08:38:34;;;;;;;;;;;;;;;;;;5101476;28;19979;-77
2021/11/10 08:40:59;;;;;;;;;;;;;;;;;;5131021;28;19900;-76
2021/11/10 08:43:24;;;;;;;;;;;;;;;;;;5123039;28;19919;-76
2021/11/10 08:45:50;;;;;;;;;;;;;;;;;;5123224;28;19900;-77
2021/11/10 08:48:15;;;;;;;;;;;;;;;;;;5130987;28;19915;-76
2021/11/10 08:50:41;;;;;;;;;;;;;;;;;;5107885;28;19925;-75
2021/11/10 08:53:06;;;;;;;;;;;;;;;;;;5131031;28;19915;-76
2021/11/10 08:55:32;;;;;;;;;;;;;;;;;;5127509;28;19911;-76
2021/11/10 08:57:57;;;;;;;;;;;;;;;;;;5125339;27;19967;-75
2021/11/10 09:00:22;;;;;;;;;;;;;;;;;;5136045;27;19906;-74
2021/11/10 09:02:47;;;;;;;;;;;;;;;;;;5129191;27;20055;-74
2021/11/10 09:05:13;;;;;;;;;;;;;;;;;;5132430;28;19904;-75
2021/11/10 09:07:38;;;;;;;;;;;;;;;;;;5126961;27;19908;-75
2021/11/10 09:10:04;;;;;;;;;;;;;;;;;;5128698;27;19979;-75
2021/11/10 09:12:29;;;;;;;;;;;;;;;;;;5134776;27;20226;-75
2021/11/10 09:14:56;;;;;;;;;;;;;;;;;;5126824;27;19903;-74
2021/11/10 09:17:22;;;;;;;;;;;;;;;;;;5131010;28;19960;-74
2021/11/10 09:19:47;;;;;;;;;;;;;;;;;;5128410;27;19907;-75
2021/11/10 09:22:12;;;;;;;;;;;;;;;;;;5128506;28;19907;-76
2021/11/10 09:24:37;;;;;;;;;;;;;;;;;;5133181;27;19959;-76
2021/11/10 09:27:03;;;;;;;;;;;;;;;;;;5126019;27;19959;-77
2021/11/10 09:29:28;;;;;;;;;;;;;;;;;;5132629;27;19900;-77
2021/11/10 09:31:54;;;;;;;;;;;;;;;;;;5129414;27;19900;-75
2021/11/10 09:34:20;;;;;;;;;;;;;;;;;;5126577;27;19947;-77
2021/11/10 09:36:48;;;;;;;;;;;;;;;;;;5131412;27;19918;-77
2021/11/10 09:39:14;;;;;;;;;;;;;;;;;;5126554;27;19933;-74
2021/11/10 09:41:39;;;;;;;;;;;;;;;;;;5132872;27;20196;-75
2021/11/10 09:44:04;;;;;;;;;;;;;;;;;;5127787;28;19900;-78
2021/11/10 09:46:29;;;;;;;;;;;;;;;;;;5127316;27;20094;-81
2021/11/10 09:48:57;;;;;;;;;;;;;;;;;;5134014;28;19981;-79
2021/11/10 09:51:22;;;;;;;;;;;;;;;;;;5127612;27;19923;-79
2021/11/10 09:53:48;;;;;;;;;;;;;;;;;;5132738;27;19908;-75
2021/11/10 09:56:13;;;;;;;;;;;;;;;;;;5128274;27;19911;-73
2021/11/10 09:58:39;;;;;;;;;;;;;;;;;;5127852;27;20399;-74
2021/11/10 10:01:04;;;;;;;;;;;;;;;;;;5134806;27;19900;-76
2021/11/10 10:03:30;;;;;;;;;;;;;;;;;;5127536;27;19961;-76
2021/11/10 10:05:55;;;;;;;;;;;;;;;;;;5131602;27;19927;-77
2021/11/10 10:08:20;;;;;;;;;;;;;;;;;;5126380;28;19929;-77
2021/11/10 10:10:46;;;;;;;;;;;;;;;;;;5111896;28;20376;-77
2021/11/10 10:13:11;;;;;;;;;;;;;;;;;;5134606;27;20038;-80
2021/11/10 10:15:36;;;;;;;;;;;;;;;;;;5127661;28;19910;-78
2021/11/10 10:18:02;;;;;;;;;;;;;;;;;;5133664;27;19912;-77
2021/11/10 10:20:27;;;;;;;;;;;;;;;;;;5128845;28;19955;-77
2021/11/10 10:22:52;;;;;;;;;;;;;;;;;;5126091;28;20149;-75
2021/11/10 10:25:17;;;;;;;;;;;;;;;;;;5132184;27;19943;-78
2021/11/10 10:27:43;;;;;;;;;;;;;;;;;;5127336;27;19899;-76
2021/11/10 10:30:08;;;;;;;;;;;;;;;;;;5132676;27;19932;-77
2021/11/10 10:32:33;;;;;;;;;;;;;;;;;;5128134;28;19931;-76
2021/11/10 10:34:58;;;;;;;;;;;;;;;;;;5128391;27;19908;-79
2021/11/10 10:37:23;;;;;;;;;;;;;;;;;;5132970;28;20185;-76
2021/11/10 10:39:49;;;;;;;;;;;;;;;;;;5127350;27;19900;-76
2021/11/10 10:42:14;;;;;;;;;;;;;;;;;;5131275;27;19906;-78
2021/11/10 10:44:39;;;;;;;;;;;;;;;;;;5127319;27;19900;-78
2021/11/10 10:47:04;;;;;;;;;;;;;;;;;;5127153;27;20150;-85
2021/11/10 10:49:33;;;;;;;;;;;;;;;;;;5133109;27;19914;-76
2021/11/10 10:51:58;;;;;;;;;;;;;;;;;;5125166;28;19918;-78
2021/11/10 10:54:23;;;;;;;;;;;;;;;;;;5128963;27;19927;-77
2021/11/10 10:56:50;;;;;;;;;;;;;;;;;;5126787;28;19932;-78
2021/11/10 10:59:16;;;;;;;;;;;;;;;;;;5125281;27;20004;-77
2021/11/10 11:01:41;;;;;;;;;;;;;;;;;;5124081;27;20140;-79
2021/11/10 11:04:06;;;;;;;;;;;;;;;;;;5122015;28;19900;-78
2021/11/10 11:06:33;;;;;;;;;;;;;;;;;;5129819;27;19918;-78
2021/11/10 11:08:59;;;;;;;;;;;;;;;;;;5125128;28;19959;-78
2021/11/10 11:11:32;;;;;;;;;;;;;;;;;;5125187;28;19908;-79
2021/11/10 11:13:59;;;;;;;;;;;;;;;;;;5131480;27;19928;-78
2021/11/10 11:16:28;;;;;;;;;;;;;;;;;;5127419;27;19993;-78
2021/11/10 11:18:53;;;;;;;;;;;;;;;;;;5130152;28;19911;-79
2021/11/10 11:21:18;;;;;;;;;;;;;;;;;;5126220;28;19949;-79
2021/11/10 11:23:44;;;;;;;;;;;;;;;;;;5107873;28;19923;-79
2021/11/10 11:26:09;;;;;;;;;;;;;;;;;;5130476;27;19908;-79
2021/11/10 11:28:34;;;;;;;;;;;;;;;;;;5126508;27;19915;-79
2021/11/10 11:31:00;;;;;;;;;;;;;;;;;;5132849;27;19934;-79
2021/11/10 11:33:28;;;;;;;;;;;;;;;;;;5126162;27;19907;-79
2021/11/10 11:35:53;;;;;;;;;;;;;;;;;;5127426;27;19918;-78
2021/11/10 11:38:18;;;;;;;;;;;;;;;;;;5131325;27;19911;-79
2021/11/10 11:40:43;;;;;;;;;;;;;;;;;;5126198;27;19912;-78
2021/11/10 11:43:09;;;;;;;;;;;;;;;;;;5129657;28;19900;-79
2021/11/10 11:45:34;;;;;;;;;;;;;;;;;;5126811;28;19949;-80
2021/11/10 11:48:00;;;;;;;;;;;;;;;;;;5126173;28;19967;-79
2021/11/10 11:50:25;;;;;;;;;;;;;;;;;;5130980;27;19959;-79
2021/11/10 11:52:50;;;;;;;;;;;;;;;;;;5126661;28;19900;-79
2021/11/10 11:55:18;;;;;;;;;;;;;;;;;;5129124;28;19915;-78
2021/11/10 11:57:44;;;;;;;;;;;;;;;;;;5130720;28;19965;-78
2021/11/10 12:00:09;;;;;;;;;;;;;;;;;;5125692;27;19904;-79
2021/11/10 12:02:35;;;;;;;;;;;;;;;;;;5129879;27;19900;-76
2021/11/10 12:05:00;;;;;;;;;;;;;;;;;;5125897;28;19917;-77
2021/11/10 12:07:26;;;;;;;;;;;;;;;;;;5124878;28;19915;-78
2021/11/10 12:09:51;;;;;;;;;;;;;;;;;;5131236;28;19900;-79
2021/11/10 12:12:16;;;;;;;;;;;;;;;;;;5124398;28;19900;-79
2021/11/10 12:14:44;;;;;;;;;;;;;;;;;;5128549;28;19900;-77
2021/11/10 12:17:12;;;;;;;;;;;;;;;;;;5124968;28;19939;-78
2021/11/10 12:19:38;;;;;;;;;;;;;;;;;;5126386;28;19985;-77
2021/11/10 12:22:03;;;;;;;;;;;;;;;;;;5124478;28;19907;-78
2021/11/10 12:24:28;;;;;;;;;;;;;;;;;;5125068;27;20104;-76
2021/11/10 12:26:53;;;;;;;;;;;;;;;;;;5128902;28;20298;-76
2021/11/10 12:29:19;;;;;;;;;;;;;;;;;;5124435;28;19961;-80
2021/11/10 12:31:44;;;;;;;;;;;;;;;;;;5124251;28;19967;-77
2021/11/10 12:34:09;;;;;;;;;;;;;;;;;;5130264;28;19908;-77
2021/11/10 12:36:34;;;;;;;;;;;;;;;;;;5125744;28;19907;-76
2021/11/10 12:39:00;;;;;;;;;;;;;;;;;;5127467;28;19911;-76
2021/11/10 12:41:25;;;;;;;;;;;;;;;;;;5123097;28;19930;-79
2021/11/10 12:43:50;;;;;;;;;;;;;;;;;;5123380;28;19911;-76
2021/11/10 12:46:15;;;;;;;;;;;;;;;;;;5130400;28;19916;-75
2021/11/10 12:48:41;;;;;;;;;;;;;;;;;;5126087;28;19899;-75
2021/11/10 12:51:06;;;;;;;;;;;;;;;;;;5127871;28;19936;-77
2021/11/10 12:53:31;;;;;;;;;;;;;;;;;;5123297;28;19918;-79
2021/11/10 12:55:57;;;;;;;;;;;;;;;;;;5124210;28;19903;-77
2021/11/10 12:58:22;;;;;;;;;;;;;;;;;;5130956;28;19959;-78
2021/11/10 13:00:48;;;;;;;;;;;;;;;;;;5127209;28;19900;-77
2021/11/10 13:03:13;;;;;;;;;;;;;;;;;;5131522;28;19926;-78
2021/11/10 13:05:39;;;;;;;;;;;;;;;;;;5125612;28;19914;-78
2021/11/10 13:08:04;;;;;;;;;;;;;;;;;;5125393;28;19926;-77
2021/11/10 13:10:29;;;;;;;;;;;;;;;;;;5110232;28;19924;-77
2021/11/10 13:12:55;;;;;;;;;;;;;;;;;;5122078;28;19994;-76
2021/11/10 13:15:20;;;;;;;;;;;;;;;;;;5131218;28;19914;-79
2021/11/10 13:17:45;;;;;;;;;;;;;;;;;;5125249;28;19904;-76
2021/11/10 13:20:12;;;;;;;;;;;;;;;;;;5124311;28;20141;-77
2021/11/10 13:22:37;;;;;;;;;;;;;;;;;;5129552;28;19906;-78
2021/11/10 13:25:03;;;;;;;;;;;;;;;;;;5124946;28;19900;-77
2021/11/10 13:27:28;;;;;;;;;;;;;;;;;;5131421;28;19907;-79
2021/11/10 13:29:53;;;;;;;;;;;;;;;;;;5125260;28;19900;-78
2021/11/10 13:32:19;;;;;;;;;;;;;;;;;;5123302;28;19939;-78
2021/11/10 13:34:44;;;;;;;;;;;;;;;;;;5129023;28;19961;-76
2021/11/10 13:37:09;;;;;;;;;;;;;;;;;;5125124;28;19963;-76
2021/11/10 13:39:36;;;;;;;;;;;;;;;;;;5130010;28;19980;-77
2021/11/10 13:42:01;;;;;;;;;;;;;;;;;;5127249;28;19907;-77
2021/11/10 13:44:27;;;;;;;;;;;;;;;;;;5128048;27;20346;-77
2021/11/10 13:46:52;;;;;;;;;;;;;;;;;;5133016;27;19919;-79
2021/11/10 13:49:17;;;;;;;;;;;;;;;;;;5127551;28;19900;-78
2021/11/10 13:51:42;;;;;;;;;;;;;;;;;;5133071;27;19918;-76
2021/11/10 13:54:08;;;;;;;;;;;;;;;;;;5128257;27;19953;-77
2021/11/10 13:56:33;;;;;;;;;;;;;;;;;;5129798;27;19947;-74
2021/11/10 13:59:01;;;;;;;;;;;;;;;;;;5132270;28;19910;-77
2021/11/10 14:01:26;;;;;;;;;;;;;;;;;;5128228;27;19907;-77
2021/11/10 14:03:52;;;;;;;;;;;;;;;;;;5132185;28;19934;-77
2021/11/10 14:06:17;;;;;;;;;;;;;;;;;;5124110;28;19904;-75
2021/11/10 14:08:42;;;;;;;;;;;;;;;;;;5127691;28;19908;-77
2021/11/10 14:11:07;;;;;;;;;;;;;;;;;;5133803;28;19900;-75
2021/11/10 14:13:33;;;;;;;;;;;;;;;;;;5125951;28;19908;-75
2021/11/10 14:15:58;;;;;;;;;;;;;;;;;;5133403;28;19978;-78
2021/11/10 14:18:23;;;;;;;;;;;;;;;;;;5127972;27;19931;-76
2021/11/10 14:20:48;;;;;;;;;;;;;;;;;;5128206;27;19910;-74
2021/11/10 14:23:13;;;;;;;;;;;;;;;;;;5130946;27;19899;-77
2021/11/10 14:25:39;;;;;;;;;;;;;;;;;;5127690;27;19904;-76
2021/11/10 14:28:04;;;;;;;;;;;;;;;;;;5113217;28;19931;-76
2021/11/10 14:30:30;;;;;;;;;;;;;;;;;;5127455;27;19906;-75
2021/11/10 14:32:55;;;;;;;;;;;;;;;;;;5126013;27;19959;-76
2021/11/10 14:35:21;;;;;;;;;;;;;;;;;;5131475;27;19931;-74
2021/11/10 14:37:46;;;;;;;;;;;;;;;;;;5125822;28;19916;-75
2021/11/10 14:40:11;;;;;;;;;;;;;;;;;;5131643;27;19934;-73
2021/11/10 14:42:39;;;;;;;;;;;;;;;;;;5128379;28;19929;-75
2021/11/10 14:45:04;;;;;;;;;;;;;;;;;;5126414;27;19935;-73
2021/11/10 14:47:30;;;;;;;;;;;;;;;;;;5132420;27;19914;-74
2021/11/10 14:49:58;;;;;;;;;;;;;;;;;;5128289;27;19908;-75
2021/11/10 14:52:23;;;;;;;;;;;;;;;;;;5130257;27;19900;-73
2021/11/10 14:54:53;;;;;;;;;;;;;;;;;;5123751;27;19904;-74
2021/11/10 14:57:18;;;;;;;;;;;;;;;;;;5126190;28;19908;-74
2021/11/10 14:59:43;;;;;;;;;;;;;;;;;;5130991;28;19914;-74
2021/11/10 15:02:09;;;;;;;;;;;;;;;;;;5126194;27;19900;-73
2021/11/10 15:04:34;;;;;;;;;;;;;;;;;;5132291;27;19937;-75
2021/11/10 15:06:59;;;;;;;;;;;;;;;;;;5127310;27;20189;-75
2021/11/10 15:09:24;;;;;;;;;;;;;;;;;;5126039;28;19926;-75
2021/11/10 15:11:50;;;;;;;;;;;;;;;;;;5129471;28;19900;-76
2021/11/10 15:14:15;;;;;;;;;;;;;;;;;;5123398;27;19957;-79
2021/11/10 15:16:40;;;;;;;;;;;;;;;;;;5131246;28;19914;-76
2021/11/10 15:19:06;;;;;;;;;;;;;;;;;;5126160;27;20100;-75
2021/11/10 15:21:31;;;;;;;;;;;;;;;;;;5125441;28;19968;-75
2021/11/10 15:23:56;;;;;;;;;;;;;;;;;;5130023;28;19923;-77
2021/11/10 15:26:21;;;;;;;;;;;;;;;;;;5124318;27;19958;-75
2021/11/10 15:28:48;;;;;;;;;;;;;;;;;;5130709;27;19926;-74
2021/11/10 15:31:14;;;;;;;;;;;;;;;;;;5125621;27;19895;-75
2021/11/10 15:33:39;;;;;;;;;;;;;;;;;;5114148;27;20167;-76
2021/11/10 15:36:04;;;;;;;;;;;;;;;;;;5130737;27;20234;-75
2021/11/10 15:38:30;;;;;;;;;;;;;;;;;;5126024;27;19904;-77
2021/11/10 15:40:55;;;;;;;;;;;;;;;;;;5131730;28;19904;-74
2021/11/10 15:43:20;;;;;;;;;;;;;;;;;;5124706;27;19896;-77
2021/11/10 15:45:46;;;;;;;;;;;;;;;;;;5119004;28;19907;-79
2021/11/10 15:48:11;;;;;;;;;;;;;;;;;;5127836;28;19900;-78
2021/11/10 15:50:36;;;;;;;;;;;;;;;;;;5124829;28;19920;-81
2021/11/10 15:53:01;;;;;;;;;;;;;;;;;;5128998;28;20126;-80
2021/11/10 15:55:27;;;;;;;;;;;;;;;;;;5125740;27;19923;-79
2021/11/10 15:57:52;;;;;;;;;;;;;;;;;;5105445;28;19908;-80
2021/11/10 16:00:17;;;;;;;;;;;;;;;;;;5127391;27;19899;-80
2021/11/10 16:02:43;;;;;;;;;;;;;;;;;;5101954;28;19933;-75
2021/11/10 16:05:09;;;;;;;;;;;;;;;;;;5128704;28;19908;-77
2021/11/10 16:07:34;;;;;;;;;;;;;;;;;;5123909;28;19911;-77
2021/11/10 16:10:06;;;;;;;;;;;;;;;;;;5124933;27;19899;-77
2021/11/10 16:12:31;;;;;;;;;;;;;;;;;;5120993;27;19919;-76
2021/11/10 16:14:57;;;;;;;;;;;;;;;;;;5123955;28;19919;-77
2021/11/10 16:17:22;;;;;;;;;;;;;;;;;;5130568;27;19957;-77
2021/11/10 16:19:48;;;;;;;;;;;;;;;;;;5125128;27;19959;-76
2021/11/10 16:22:14;;;;;;;;;;;;;;;;;;5124466;28;19985;-77
2021/11/10 16:24:40;;;;;;;;;;;;;;;;;;5130115;28;19908;-77
2021/11/10 16:27:12;;;;;;;;;;;;;;;;;;5107020;28;19910;-77
2021/11/10 16:29:37;;;;;;;;;;;;;;;;;;5125749;27;19919;-76
2021/11/10 16:32:16;;;;;;;;;;;;;;;;;;5127678;28;19964;-77
2021/11/10 16:34:42;;;;;;;;;;;;;;;;;;5126080;27;19942;-76